createdAt,value
2018-01-13T15:47:58.955Z,3.5
2018-01-13T15:49:06.141Z,3.4
2018-01-13T15:50:13.338Z,3.4
2018-01-13T15:51:20.527Z,3.5
2018-01-13T15:52:27.720Z,3.5
2018-01-13T15:53:34.647Z,3.5
2018-01-13T15:54:41.840Z,3.5
2018-01-13T15:55:49.029Z,3.4
2018-01-13T15:56:56.230Z,3.5
2018-01-13T15:58:03.416Z,3.4
2018-01-13T15:59:10.610Z,3.4
2018-01-13T16:00:17.519Z,3.5
2018-01-13T16:01:24.169Z,3.4
2018-01-13T16:02:31.356Z,3.5
2018-01-13T16:03:38.268Z,3.4
2018-01-13T16:04:45.458Z,3.4
2018-01-13T16:05:52.647Z,3.4
2018-01-13T16:06:59.839Z,3.4
2018-01-13T16:08:07.026Z,3.4
2018-01-13T16:09:14.240Z,3.4
2018-01-13T16:10:21.165Z,3.4
2018-01-13T16:11:28.352Z,3.4
2018-01-13T16:12:35.544Z,3.4
2018-01-13T16:13:42.461Z,3.4
2018-01-13T16:14:49.654Z,3.4
2018-01-13T16:15:56.845Z,3.3
2018-01-13T16:17:04.067Z,3.3
2018-01-13T16:18:11.264Z,3.3
2018-01-13T16:19:18.454Z,3.3
2018-01-13T16:20:25.370Z,3.3
2018-01-13T16:21:32.560Z,3.3
2018-01-13T16:22:39.754Z,3.3
2018-01-13T16:23:46.944Z,3.3
2018-01-13T16:24:53.866Z,3.3
2018-01-13T16:26:01.057Z,3.3
2018-01-13T16:27:08.241Z,3.3
2018-01-13T16:28:15.433Z,3.3
2018-01-13T16:29:22.357Z,3.2
2018-01-13T16:30:29.544Z,3.2
2018-01-13T16:31:36.464Z,3.2
2018-01-13T16:32:43.381Z,3.2
2018-01-13T16:33:50.571Z,3.3
2018-01-13T16:34:57.765Z,3.2
2018-01-13T16:36:04.681Z,3.3
2018-01-13T16:37:11.878Z,3.2
2018-01-13T16:38:19.070Z,3.2
2018-01-13T16:39:26.269Z,3.2
2018-01-13T16:40:33.454Z,3.2
2018-01-13T16:41:40.651Z,3.2
2018-01-13T16:42:47.848Z,3.2
2018-01-13T16:43:55.039Z,3.2
2018-01-13T16:45:01.954Z,3.2
2018-01-13T16:46:09.144Z,3.2
2018-01-13T16:47:16.338Z,3.2
2018-01-13T16:48:23.522Z,3.2
2018-01-13T16:49:45.361Z,3.1
2018-01-13T16:50:52.555Z,3.1
2018-01-13T16:51:59.742Z,3.1
2018-01-13T16:53:06.934Z,3.1
2018-01-13T16:54:14.133Z,3.1
2018-01-13T16:55:21.350Z,3.1
2018-01-13T16:56:28.545Z,3.1
2018-01-13T16:57:35.733Z,3.1
2018-01-13T16:58:42.928Z,3.1
2018-01-13T16:59:50.124Z,3
2018-01-13T17:00:57.042Z,3
2018-01-13T17:02:04.232Z,3
2018-01-13T17:03:11.427Z,3
2018-01-13T17:04:18.342Z,3
2018-01-13T17:05:25.534Z,3
2018-01-13T17:06:32.174Z,3
2018-01-13T17:07:39.099Z,3
2018-01-13T17:08:46.287Z,3
2018-01-13T17:09:53.487Z,3
2018-01-13T17:11:00.681Z,3
2018-01-13T17:12:07.603Z,3
2018-01-13T17:13:14.802Z,3
2018-01-13T17:14:21.987Z,3
2018-01-13T17:15:29.177Z,3
2018-01-13T17:16:36.374Z,3
2018-01-13T17:17:43.561Z,3
2018-01-13T17:18:50.785Z,3
2018-01-13T17:19:57.704Z,3
2018-01-13T17:21:04.897Z,2.9
2018-01-13T17:22:12.094Z,2.9
2018-01-13T17:23:19.285Z,2.9
2018-01-13T17:24:26.475Z,2.9
2018-01-13T17:25:33.742Z,2.9
2018-01-13T17:26:40.937Z,2.9
2018-01-13T17:27:48.136Z,2.9
2018-01-13T17:28:55.326Z,2.9
2018-01-13T17:30:02.516Z,2.9
2018-01-13T17:31:09.712Z,2.9
2018-01-13T17:32:16.619Z,2.9
2018-01-13T17:33:23.540Z,2.8
2018-01-13T17:34:30.740Z,2.8
2018-01-13T17:35:37.930Z,2.8
2018-01-13T17:36:45.125Z,2.8
2018-01-13T17:37:52.315Z,2.8
2018-01-13T17:38:59.503Z,2.8
2018-01-13T17:40:06.692Z,2.8
2018-01-13T17:41:13.885Z,2.8
2018-01-13T17:42:21.074Z,2.8
2018-01-13T17:43:28.267Z,2.8
2018-01-13T17:44:35.456Z,2.8
2018-01-13T17:45:42.645Z,2.8
2018-01-13T17:46:49.837Z,2.8
2018-01-13T17:47:57.030Z,2.7
2018-01-13T17:49:04.225Z,2.8
2018-01-13T17:50:11.422Z,2.8
2018-01-13T17:51:18.613Z,2.8
2018-01-13T17:52:25.801Z,2.8
2018-01-13T17:53:32.740Z,2.8
2018-01-13T17:54:39.929Z,2.8
2018-01-13T17:55:47.121Z,2.7
2018-01-13T17:56:54.313Z,2.7
2018-01-13T17:58:01.504Z,2.7
2018-01-13T17:59:08.696Z,2.7
2018-01-13T18:00:15.616Z,2.7
2018-01-13T18:01:22.812Z,2.7
2018-01-13T18:02:29.732Z,2.7
2018-01-13T18:03:36.926Z,2.7
2018-01-13T18:04:43.840Z,2.7
2018-01-13T18:05:51.034Z,2.7
2018-01-13T18:06:58.228Z,2.7
2018-01-13T18:08:05.148Z,2.7
2018-01-13T18:09:12.334Z,2.7
2018-01-13T18:10:19.534Z,2.7
2018-01-13T18:11:26.722Z,2.7
2018-01-13T18:12:33.914Z,2.7
2018-01-13T18:13:41.104Z,2.7
2018-01-13T18:14:48.021Z,2.7
2018-01-13T18:15:54.950Z,2.7
2018-01-13T18:17:01.895Z,2.7
2018-01-13T18:18:09.094Z,2.7
2018-01-13T18:19:16.006Z,2.7
2018-01-13T18:20:23.197Z,2.7
2018-01-13T18:21:30.387Z,2.7
2018-01-13T18:22:37.585Z,2.7
2018-01-13T18:23:44.769Z,2.7
2018-01-13T18:24:51.962Z,2.7
2018-01-13T18:25:58.884Z,2.7
2018-01-13T18:27:05.802Z,2.6
2018-01-13T18:28:12.718Z,2.6
2018-01-13T18:29:19.910Z,2.6
2018-01-13T18:30:27.100Z,2.6
2018-01-13T18:31:33.739Z,2.6
2018-01-13T18:32:40.929Z,2.6
2018-01-13T18:33:48.121Z,2.6
2018-01-13T18:34:55.038Z,2.6
2018-01-13T18:36:02.236Z,2.6
2018-01-13T18:37:09.429Z,2.6
2018-01-13T18:38:16.340Z,2.6
2018-01-13T18:39:23.535Z,2.6
2018-01-13T18:40:30.729Z,2.6
2018-01-13T18:41:37.916Z,2.6
2018-01-13T18:42:45.137Z,2.5
2018-01-13T18:43:52.329Z,2.6
2018-01-13T18:44:59.520Z,2.5
2018-01-13T18:46:06.718Z,2.6
2018-01-13T18:47:13.907Z,2.6
2018-01-13T18:48:21.111Z,2.6
2018-01-13T18:49:28.025Z,2.5
2018-01-13T18:50:35.218Z,2.6
2018-01-13T18:51:42.415Z,2.6
2018-01-13T18:52:49.606Z,2.6
2018-01-13T18:53:56.525Z,2.5
2018-01-13T18:55:03.720Z,2.5
2018-01-13T18:56:10.917Z,2.5
2018-01-13T18:57:17.827Z,2.5
2018-01-13T18:58:25.026Z,2.5
2018-01-13T18:59:32.216Z,2.5
2018-01-13T19:00:39.413Z,2.5
2018-01-13T19:01:46.600Z,2.5
2018-01-13T19:02:53.789Z,2.5
2018-01-13T19:04:00.983Z,2.5
2018-01-13T19:05:08.173Z,2.5
2018-01-13T19:06:15.373Z,2.5
2018-01-13T19:07:22.575Z,2.5
2018-01-13T19:08:29.771Z,2.5
2018-01-13T19:09:36.995Z,2.5
2018-01-13T19:10:44.194Z,2.5
2018-01-13T19:11:51.392Z,2.4
2018-01-13T19:12:58.587Z,2.5
2018-01-13T19:14:05.777Z,2.5
2018-01-13T19:15:13.303Z,2.5
2018-01-13T19:16:20.492Z,2.4
2018-01-13T19:17:27.413Z,2.4
2018-01-13T19:18:34.615Z,2.4
2018-01-13T19:19:41.810Z,2.4
2018-01-13T19:20:49.007Z,2.4
2018-01-13T19:21:56.199Z,2.4
2018-01-13T19:23:03.391Z,2.4
2018-01-13T19:24:10.322Z,2.4
2018-01-13T19:25:17.514Z,2.4
2018-01-13T19:26:24.437Z,2.4
2018-01-13T19:27:31.663Z,2.4
2018-01-13T19:28:38.868Z,2.4
2018-01-13T19:29:46.059Z,2.4
2018-01-13T19:30:52.995Z,2.4
2018-01-13T19:32:00.198Z,2.4
2018-01-13T19:33:07.122Z,2.4
2018-01-13T19:34:14.051Z,2.4
2018-01-13T19:35:21.275Z,2.4
2018-01-13T19:36:28.474Z,2.4
2018-01-13T19:37:35.675Z,2.3
2018-01-13T19:38:42.655Z,2.3
2018-01-13T19:39:49.585Z,2.4
2018-01-13T19:40:56.785Z,2.4
2018-01-13T19:42:03.714Z,2.3
2018-01-13T19:43:10.937Z,2.3
2018-01-13T19:44:18.127Z,2.4
2018-01-13T19:45:25.381Z,2.3
2018-01-13T19:46:32.589Z,2.3
2018-01-13T19:47:39.826Z,2.3
2018-01-13T19:48:47.022Z,2.3
2018-01-13T19:49:54.228Z,2.3
2018-01-13T19:51:01.423Z,2.3
2018-01-13T19:52:08.629Z,2.3
2018-01-13T19:53:15.836Z,2.3
2018-01-13T19:54:23.032Z,2.3
2018-01-13T19:55:30.232Z,2.3
2018-01-13T19:56:37.432Z,2.3
2018-01-13T19:57:44.629Z,2.3
2018-01-13T19:58:51.853Z,2.3
2018-01-13T19:59:59.063Z,2.3
2018-01-13T20:01:06.276Z,2.3
2018-01-13T20:02:13.472Z,2.3
2018-01-13T20:03:20.680Z,2.3
2018-01-13T20:04:27.888Z,2.3
2018-01-13T20:05:35.086Z,2.3
2018-01-13T20:06:42.280Z,2.3
2018-01-13T20:07:49.477Z,2.3
2018-01-13T20:08:56.407Z,2.3
2018-01-13T20:10:03.625Z,2.3
2018-01-13T20:11:10.837Z,2.3
2018-01-13T20:12:18.039Z,2.3
2018-01-13T20:13:25.240Z,2.3
2018-01-13T20:14:32.474Z,2.3
2018-01-13T20:15:39.430Z,2.3
2018-01-13T20:16:46.642Z,2.3
2018-01-13T20:17:53.567Z,2.3
2018-01-13T20:19:00.495Z,2.2
2018-01-13T20:20:07.417Z,2.2
2018-01-13T20:21:14.618Z,2.3
2018-01-13T20:22:21.818Z,2.3
2018-01-13T20:23:29.015Z,2.3
2018-01-13T20:24:36.225Z,2.2
2018-01-13T20:25:43.423Z,2.2
2018-01-13T20:26:50.628Z,2.2
2018-01-13T20:27:57.824Z,2.2
2018-01-13T20:29:04.753Z,2.2
2018-01-13T20:30:11.987Z,2.2
2018-01-13T20:31:19.207Z,2.2
2018-01-13T20:32:26.410Z,2.2
2018-01-13T20:33:33.617Z,2.2
2018-01-13T20:34:40.819Z,2.2
2018-01-13T20:35:48.033Z,2.2
2018-01-13T20:36:55.241Z,2.2
2018-01-13T20:38:02.448Z,2.2
2018-01-13T20:39:09.643Z,2.2
2018-01-13T20:40:16.847Z,2.2
2018-01-13T20:41:24.051Z,2.1
2018-01-13T20:42:31.255Z,2.1
2018-01-13T20:43:38.455Z,2.1
2018-01-13T20:44:45.389Z,2.1
2018-01-13T20:45:52.034Z,2.1
2018-01-13T20:46:58.690Z,2.1
2018-01-13T20:48:05.905Z,2.1
2018-01-13T20:49:13.112Z,2
2018-01-13T20:50:20.318Z,2
2018-01-13T20:51:27.530Z,2
2018-01-13T20:52:34.739Z,2
2018-01-13T20:53:41.932Z,2
2018-01-13T20:54:49.124Z,2
2018-01-13T20:55:56.334Z,2
2018-01-13T20:57:02.970Z,2
2018-01-13T20:58:10.179Z,1.9
2018-01-13T20:59:17.383Z,1.9
2018-01-13T21:00:24.580Z,1.9
2018-01-13T21:01:31.503Z,1.9
2018-01-13T21:02:38.704Z,1.9
2018-01-13T21:03:45.904Z,1.9
2018-01-13T21:04:53.114Z,1.9
2018-01-13T21:06:00.322Z,1.8
2018-01-13T21:07:07.526Z,1.8
2018-01-13T21:08:14.731Z,1.8
2018-01-13T21:09:21.936Z,1.8
2018-01-13T21:10:29.149Z,1.8
2018-01-13T21:11:36.449Z,1.8
2018-01-13T21:12:43.648Z,1.8
2018-01-13T21:13:50.867Z,1.8
2018-01-13T21:14:58.065Z,1.8
2018-01-13T21:16:05.272Z,1.8
2018-01-13T21:17:12.480Z,1.8
2018-01-13T21:18:19.927Z,1.7
2018-01-13T21:19:26.857Z,1.8
2018-01-13T21:20:34.064Z,1.8
2018-01-13T21:21:40.720Z,1.7
2018-01-13T21:22:47.924Z,1.7
2018-01-13T21:23:54.587Z,1.7
2018-01-13T21:25:01.782Z,1.7
2018-01-13T21:26:08.987Z,1.7
2018-01-13T21:27:16.190Z,1.7
2018-01-13T21:28:23.390Z,1.7
2018-01-13T21:29:30.619Z,1.7
2018-01-13T21:30:37.853Z,1.7
2018-01-13T21:31:45.056Z,1.7
2018-01-13T21:32:52.406Z,1.6
2018-01-13T21:33:59.608Z,1.7
2018-01-13T21:35:06.809Z,1.7
2018-01-13T21:36:14.020Z,1.6
2018-01-13T21:37:21.225Z,1.6
2018-01-13T21:38:28.436Z,1.6
2018-01-13T21:39:35.357Z,1.6
2018-01-13T21:40:42.561Z,1.6
2018-01-13T21:41:49.757Z,1.6
2018-01-13T21:42:56.694Z,1.6
2018-01-13T21:44:03.886Z,1.6
2018-01-13T21:45:11.077Z,1.6
2018-01-13T21:46:18.272Z,1.6
2018-01-13T21:47:25.483Z,1.6
2018-01-13T21:48:32.687Z,1.6
2018-01-13T21:49:39.889Z,1.6
2018-01-13T21:50:47.090Z,1.6
2018-01-13T21:51:54.005Z,1.6
2018-01-13T21:53:01.203Z,1.5
2018-01-13T21:54:08.406Z,1.6
2018-01-13T21:55:15.602Z,1.5
2018-01-13T21:56:22.822Z,1.5
2018-01-13T21:57:30.012Z,1.5
2018-01-13T21:58:37.203Z,1.5
2018-01-13T21:59:44.396Z,1.5
2018-01-13T22:00:51.594Z,1.5
2018-01-13T22:01:58.790Z,1.5
2018-01-13T22:03:05.980Z,1.5
2018-01-13T22:04:13.177Z,1.5
2018-01-13T22:05:20.363Z,1.4
2018-01-13T22:06:27.557Z,1.4
2018-01-13T22:07:34.766Z,1.4
2018-01-13T22:08:41.950Z,1.4
2018-01-13T22:09:49.146Z,1.4
2018-01-13T22:10:56.590Z,1.4
2018-01-13T22:12:03.782Z,1.4
2018-01-13T22:13:10.976Z,1.4
2018-01-13T22:14:18.167Z,1.3
2018-01-13T22:15:25.357Z,1.3
2018-01-13T22:16:32.551Z,1.3
2018-01-13T22:17:39.744Z,1.3
2018-01-13T22:18:46.934Z,1.3
2018-01-13T22:19:54.132Z,1.3
2018-01-13T22:21:01.320Z,1.3
2018-01-13T22:22:08.247Z,1.3
2018-01-13T22:23:15.447Z,1.2
2018-01-13T22:24:22.642Z,1.3
2018-01-13T22:25:29.836Z,1.3
2018-01-13T22:26:37.033Z,1.3
2018-01-13T22:27:44.227Z,1.3
2018-01-13T22:28:51.415Z,1.2
2018-01-13T22:29:58.609Z,1.2
2018-01-13T22:31:05.874Z,1.2
2018-01-13T22:32:12.800Z,1.2
2018-01-13T22:33:19.986Z,1.2
2018-01-13T22:34:27.178Z,1.2
2018-01-13T22:35:34.365Z,1.2
2018-01-13T22:36:41.557Z,1.2
2018-01-13T22:37:48.745Z,1.2
2018-01-13T22:38:55.936Z,1.1
2018-01-13T22:40:03.126Z,1.1
2018-01-13T22:41:10.043Z,1.1
2018-01-13T22:42:17.231Z,1.2
2018-01-13T22:43:24.138Z,1.1
2018-01-13T22:44:31.325Z,1.1
2018-01-13T22:45:38.514Z,1.2
2018-01-13T22:46:45.704Z,1.2
2018-01-13T22:47:52.892Z,1.1
2018-01-13T22:49:00.091Z,1.1
2018-01-13T22:50:07.278Z,1.1
2018-01-13T22:51:14.466Z,1.1
2018-01-13T22:52:21.382Z,1.1
2018-01-13T22:53:28.571Z,1.1
2018-01-13T22:54:35.757Z,1
2018-01-13T22:55:42.947Z,1
2018-01-13T22:56:50.139Z,1
2018-01-13T22:57:57.337Z,1
2018-01-13T22:59:04.528Z,1
2018-01-13T23:00:11.444Z,1
2018-01-13T23:01:18.634Z,0.9
2018-01-13T23:02:25.822Z,1
2018-01-13T23:03:33.015Z,0.9
2018-01-13T23:04:40.203Z,0.9
2018-01-13T23:05:47.396Z,0.9
2018-01-13T23:06:54.590Z,0.9
2018-01-13T23:08:01.774Z,0.9
2018-01-13T23:09:08.682Z,0.9
2018-01-13T23:10:15.872Z,0.9
2018-01-13T23:11:23.066Z,0.8
2018-01-13T23:12:30.253Z,0.8
2018-01-13T23:13:37.447Z,0.8
2018-01-13T23:14:44.641Z,0.8
2018-01-13T23:15:51.833Z,0.8
2018-01-13T23:16:59.020Z,0.8
2018-01-13T23:18:06.212Z,0.9
2018-01-13T23:19:12.858Z,0.8
2018-01-13T23:20:20.047Z,0.8
2018-01-13T23:21:26.690Z,0.8
2018-01-13T23:22:33.884Z,0.8
2018-01-13T23:23:41.066Z,0.8
2018-01-13T23:24:48.259Z,0.8
2018-01-13T23:25:55.448Z,0.8
2018-01-13T23:27:02.659Z,0.8
2018-01-13T23:28:09.834Z,0.7
2018-01-13T23:29:17.021Z,0.7
2018-01-13T23:30:24.212Z,0.8
2018-01-13T23:31:31.415Z,0.7
2018-01-13T23:32:38.335Z,0.7
2018-01-13T23:33:45.520Z,0.7
2018-01-13T23:34:52.706Z,0.7
2018-01-13T23:35:59.627Z,0.7
2018-01-13T23:37:06.541Z,0.7
2018-01-13T23:38:13.728Z,0.7
2018-01-13T23:39:20.653Z,0.7
2018-01-13T23:40:27.846Z,0.7
2018-01-13T23:41:34.758Z,0.7
2018-01-13T23:42:41.949Z,0.7
2018-01-13T23:43:48.593Z,0.6
2018-01-13T23:44:55.237Z,0.7
2018-01-13T23:46:02.428Z,0.7
2018-01-13T23:47:09.623Z,0.7
2018-01-13T23:48:16.539Z,0.7
2018-01-13T23:49:23.450Z,0.6
2018-01-13T23:50:30.644Z,0.6
2018-01-13T23:51:37.878Z,0.6
2018-01-13T23:52:45.064Z,0.6
2018-01-13T23:53:51.988Z,0.6
2018-01-13T23:54:59.173Z,0.6
2018-01-13T23:56:06.369Z,0.6
2018-01-13T23:57:13.286Z,0.6
2018-01-13T23:58:20.473Z,0.6
2018-01-13T23:59:27.659Z,0.6
